createdAt,value
2022-12-04T00:01:15.765Z,80.19
2022-12-04T00:03:42.680Z,80.17
2022-12-04T00:06:16.134Z,80.06
2022-12-04T00:08:43.211Z,80.36
2022-12-04T00:11:11.648Z,80.13
2022-12-04T00:13:39.056Z,80.06
2022-12-04T00:16:07.613Z,80.25
2022-12-04T00:18:34.835Z,79.94
2022-12-04T00:21:09.065Z,79.63
2022-12-04T00:23:37.103Z,79.36
2022-12-04T00:26:09.579Z,79.15
2022-12-04T00:28:36.921Z,79.17
2022-12-04T00:31:25.549Z,78.61
2022-12-04T00:33:52.696Z,79.16
2022-12-04T00:36:21.425Z,79.12
2022-12-04T00:38:48.541Z,79.14
2022-12-04T00:41:17.762Z,79.00
2022-12-04T00:43:45.799Z,78.89
2022-12-04T00:46:12.963Z,78.47
2022-12-04T00:48:39.755Z,78.43
2022-12-04T00:51:09.176Z,78.51
2022-12-04T00:53:36.568Z,78.97
2022-12-04T00:56:05.171Z,78.26
2022-12-04T00:58:32.024Z,78.44
2022-12-04T01:01:10.256Z,78.16
2022-12-04T01:03:37.461Z,78.50
2022-12-04T01:06:04.432Z,78.00
2022-12-04T01:08:31.756Z,78.91
2022-12-04T01:10:58.456Z,78.94
2022-12-04T01:13:25.940Z,78.30
2022-12-04T01:15:52.829Z,78.52
2022-12-04T01:18:19.559Z,78.71
2022-12-04T01:20:50.713Z,78.64
2022-12-04T01:23:18.231Z,78.80
2022-12-04T01:25:56.614Z,78.74
2022-12-04T01:28:24.186Z,78.93
2022-12-04T01:31:01.514Z,78.88
2022-12-04T01:33:28.922Z,78.85
2022-12-04T01:35:57.293Z,78.64
2022-12-04T01:38:24.839Z,78.88
2022-12-04T01:40:52.136Z,78.97
2022-12-04T01:43:19.684Z,78.76
2022-12-04T01:45:49.287Z,79.33
2022-12-04T01:48:23.378Z,79.22
2022-12-04T01:50:53.143Z,79.31
2022-12-04T01:53:20.844Z,78.96
2022-12-04T01:55:48.240Z,79.26
2022-12-04T01:58:17.245Z,79.31
2022-12-04T02:00:47.410Z,79.08
2022-12-04T02:03:18.052Z,79.30
2022-12-04T02:05:44.801Z,79.63
2022-12-04T02:08:11.598Z,79.54
2022-12-04T02:10:59.199Z,79.30
2022-12-04T02:13:42.468Z,78.83
2022-12-04T02:16:20.209Z,79.39
2022-12-04T02:18:54.951Z,79.07
2022-12-04T02:21:33.507Z,78.99
2022-12-04T02:24:11.524Z,78.96
2022-12-04T02:26:53.205Z,78.95
2022-12-04T02:29:41.391Z,79.31
2022-12-04T02:32:14.176Z,79.27
2022-12-04T02:34:54.341Z,79.68
2022-12-04T02:37:44.512Z,79.48
2022-12-04T02:40:25.959Z,79.45
2022-12-04T02:42:57.721Z,79.00
2022-12-04T02:45:27.509Z,79.18
2022-12-04T02:47:55.370Z,78.67
2022-12-04T02:50:22.619Z,79.36
2022-12-04T02:52:59.133Z,79.60
2022-12-04T02:55:30.801Z,78.92
2022-12-04T02:58:01.378Z,79.82
2022-12-04T03:00:30.285Z,79.35
2022-12-04T03:03:03.037Z,79.23
2022-12-04T03:05:36.830Z,79.65
2022-12-04T03:08:11.881Z,78.86
2022-12-04T03:10:44.240Z,78.99
2022-12-04T03:13:18.574Z,79.21
2022-12-04T03:16:00.861Z,79.07
2022-12-04T03:18:32.343Z,78.99
2022-12-04T03:21:05.205Z,79.16
2022-12-04T03:23:39.510Z,79.32
2022-12-04T03:26:12.433Z,79.21
2022-12-04T03:28:59.395Z,79.27
2022-12-04T03:31:39.094Z,79.55
2022-12-04T03:34:07.745Z,79.23
2022-12-04T03:36:38.105Z,79.49
2022-12-04T03:39:24.431Z,79.70
2022-12-04T03:41:55.792Z,79.91
2022-12-04T03:44:34.316Z,79.32
2022-12-04T03:47:21.484Z,79.52
2022-12-04T03:49:54.948Z,79.71
2022-12-04T03:52:36.350Z,79.63
2022-12-04T03:55:15.968Z,79.40
2022-12-04T03:57:44.701Z,79.71
2022-12-04T04:00:14.552Z,80.34
2022-12-04T04:03:03.738Z,80.37
2022-12-04T04:05:31.894Z,80.35
2022-12-04T04:08:21.923Z,80.33
2022-12-04T04:10:49.402Z,80.11
2022-12-04T04:13:52.144Z,80.03
2022-12-04T04:16:39.973Z,80.18
2022-12-04T04:19:26.644Z,79.70
2022-12-04T04:22:12.380Z,80.18
2022-12-04T04:24:46.526Z,80.05
2022-12-04T04:27:13.490Z,80.52
2022-12-04T04:29:41.913Z,80.71
2022-12-04T04:32:17.607Z,80.73
2022-12-04T04:34:52.760Z,80.89
2022-12-04T04:37:28.103Z,80.76
2022-12-04T04:40:06.983Z,80.77
2022-12-04T04:42:40.218Z,80.45
2022-12-04T04:45:08.594Z,80.68
2022-12-04T04:47:46.045Z,80.60
2022-12-04T04:50:15.015Z,80.44
2022-12-04T04:52:45.795Z,81.05
2022-12-04T04:55:13.574Z,80.18
2022-12-04T04:57:40.511Z,80.10
2022-12-04T05:00:20.185Z,80.02
2022-12-04T05:02:48.714Z,80.34
2022-12-04T05:05:17.161Z,80.72
2022-12-04T05:07:43.990Z,80.78
2022-12-04T05:10:10.976Z,80.89
2022-12-04T05:12:37.776Z,80.63
2022-12-04T05:15:05.243Z,81.04
2022-12-04T05:17:31.981Z,80.73
2022-12-04T05:19:58.946Z,80.78
2022-12-04T05:22:31.573Z,80.63
2022-12-04T05:24:58.782Z,80.54
2022-12-04T05:27:26.821Z,80.68
2022-12-04T05:29:54.945Z,80.39
2022-12-04T05:32:23.407Z,80.21
2022-12-04T05:34:54.001Z,80.33
2022-12-04T05:37:20.922Z,80.51
2022-12-04T05:39:47.944Z,80.80
2022-12-04T05:42:14.724Z,80.75
2022-12-04T05:44:41.423Z,80.38
2022-12-04T05:47:08.236Z,80.23
2022-12-04T05:49:35.412Z,80.26
2022-12-04T05:52:03.823Z,80.45
2022-12-04T05:54:30.724Z,80.33
2022-12-04T05:56:57.363Z,80.36
2022-12-04T05:59:24.137Z,80.36
2022-12-04T06:01:50.940Z,80.14
2022-12-04T06:04:17.680Z,80.45
2022-12-04T06:06:44.355Z,80.34
2022-12-04T06:09:11.614Z,80.48
2022-12-04T06:11:39.773Z,80.49
2022-12-04T06:14:09.057Z,80.71
2022-12-04T06:16:38.709Z,80.54
2022-12-04T06:19:08.321Z,80.40
2022-12-04T06:21:36.956Z,80.11
2022-12-04T06:24:04.702Z,80.35
2022-12-04T06:26:31.376Z,80.62
2022-12-04T06:28:58.942Z,80.68
2022-12-04T06:31:28.046Z,80.57
2022-12-04T06:33:56.064Z,80.46
2022-12-04T06:36:23.239Z,80.28
2022-12-04T06:38:50.813Z,80.94
2022-12-04T06:41:20.416Z,81.03
2022-12-04T06:43:48.587Z,81.24
2022-12-04T06:46:21.115Z,80.97
2022-12-04T06:48:48.090Z,81.24
2022-12-04T06:51:17.442Z,81.00
2022-12-04T06:53:44.310Z,80.70
2022-12-04T06:56:16.209Z,80.56
2022-12-04T06:58:42.900Z,80.70
2022-12-04T07:01:11.712Z,80.95
2022-12-04T07:03:38.546Z,81.02
2022-12-04T07:06:14.406Z,81.17
2022-12-04T07:08:41.840Z,81.02
2022-12-04T07:11:09.018Z,81.27
2022-12-04T07:13:35.770Z,81.12
2022-12-04T07:16:05.142Z,80.79
2022-12-04T07:18:32.980Z,81.46
2022-12-04T07:20:59.681Z,81.69
2022-12-04T07:23:26.450Z,81.48
2022-12-04T07:25:53.228Z,81.55
2022-12-04T07:28:19.969Z,81.59
2022-12-04T07:30:46.774Z,81.67
2022-12-04T07:33:13.587Z,81.87
2022-12-04T07:35:43.299Z,81.38
2022-12-04T07:38:10.066Z,81.80
2022-12-04T07:40:39.740Z,81.69
2022-12-04T07:43:06.525Z,81.79
2022-12-04T07:45:33.269Z,81.55
2022-12-04T07:48:00.030Z,81.55
2022-12-04T07:50:26.710Z,81.43
2022-12-04T07:52:53.484Z,81.69
2022-12-04T07:55:23.433Z,81.67
2022-12-04T07:58:03.241Z,81.62
2022-12-04T08:00:33.593Z,81.86
2022-12-04T08:03:00.489Z,82.09
2022-12-04T08:05:27.290Z,81.90
2022-12-04T08:07:54.437Z,81.81
2022-12-04T08:10:21.207Z,81.76
2022-12-04T08:12:47.875Z,82.19
2022-12-04T08:15:14.624Z,81.88
2022-12-04T08:17:41.317Z,82.11
2022-12-04T08:20:08.249Z,82.14
2022-12-04T08:22:34.868Z,81.90
2022-12-04T08:25:01.700Z,82.08
2022-12-04T08:27:28.494Z,82.38
2022-12-04T08:29:55.425Z,82.41
2022-12-04T08:32:22.307Z,82.09
2022-12-04T08:34:55.510Z,82.13
2022-12-04T08:37:28.707Z,82.63
2022-12-04T08:39:55.802Z,82.49
2022-12-04T08:42:25.285Z,82.42
2022-12-04T08:44:52.039Z,82.47
2022-12-04T08:47:18.905Z,82.49
2022-12-04T08:49:45.639Z,82.55
2022-12-04T08:52:12.350Z,82.52
2022-12-04T08:54:39.062Z,82.53
2022-12-04T08:57:05.859Z,82.95
2022-12-04T08:59:32.746Z,82.71
2022-12-04T09:01:59.545Z,82.74
2022-12-04T09:04:26.426Z,82.56
2022-12-04T09:06:54.694Z,82.48
2022-12-04T09:09:21.375Z,82.27
2022-12-04T09:11:48.505Z,82.32
2022-12-04T09:14:15.253Z,82.23
2022-12-04T09:16:41.958Z,82.46
2022-12-04T09:19:08.653Z,82.44
2022-12-04T09:21:36.722Z,82.35
2022-12-04T09:24:03.485Z,82.44
2022-12-04T09:26:32.091Z,82.44
2022-12-04T09:29:00.511Z,82.46
2022-12-04T09:31:27.698Z,82.74
2022-12-04T09:33:54.588Z,82.67
2022-12-04T09:36:21.763Z,83.08
2022-12-04T09:38:50.782Z,83.50
2022-12-04T09:41:35.999Z,84.34
2022-12-04T09:44:20.633Z,84.34
2022-12-04T09:46:52.028Z,84.17
2022-12-04T09:49:26.733Z,84.39
2022-12-04T09:51:55.764Z,84.40
2022-12-04T09:54:26.916Z,84.63
2022-12-04T09:57:04.316Z,84.67
2022-12-04T09:59:32.046Z,84.63
2022-12-04T10:02:03.772Z,84.67
2022-12-04T10:04:30.635Z,84.60
2022-12-04T10:07:22.894Z,86.35
2022-12-04T10:09:58.955Z,85.46
2022-12-04T10:12:50.306Z,86.15
2022-12-04T10:15:43.596Z,85.97
2022-12-04T10:18:33.091Z,87.30
2022-12-04T10:21:13.763Z,86.88
2022-12-04T10:24:20.240Z,87.00
2022-12-04T10:26:48.412Z,86.52
2022-12-04T10:29:33.022Z,86.80
2022-12-04T10:32:14.714Z,86.62
2022-12-04T10:34:45.621Z,86.24
2022-12-04T10:37:14.601Z,86.59
2022-12-04T10:39:55.264Z,87.24
2022-12-04T10:42:31.652Z,87.32
2022-12-04T10:44:58.485Z,87.25
2022-12-04T10:47:25.453Z,88.00
2022-12-04T10:50:05.544Z,88.27
2022-12-04T10:52:32.280Z,88.87
2022-12-04T10:55:00.269Z,88.65
2022-12-04T10:57:46.044Z,89.30
2022-12-04T11:00:35.091Z,89.84
2022-12-04T11:03:08.797Z,89.04
2022-12-04T11:05:39.826Z,88.80
2022-12-04T11:08:07.402Z,89.22
2022-12-04T11:10:38.234Z,88.08
2022-12-04T11:13:10.977Z,88.33
2022-12-04T11:15:45.995Z,88.89
2022-12-04T11:18:18.884Z,88.61
2022-12-04T11:20:54.649Z,89.64
2022-12-04T11:23:22.116Z,88.20
2022-12-04T11:25:52.578Z,87.89
2022-12-04T11:28:40.645Z,88.53
2022-12-04T11:31:08.660Z,88.40
2022-12-04T11:33:36.940Z,88.71
2022-12-04T11:36:07.842Z,88.40
2022-12-04T11:38:35.098Z,88.70
2022-12-04T11:41:03.346Z,88.86
2022-12-04T11:43:32.835Z,88.49
2022-12-04T11:46:04.810Z,88.31
2022-12-04T11:48:32.478Z,88.70
2022-12-04T11:51:17.966Z,89.11
2022-12-04T11:53:55.718Z,89.57
2022-12-04T11:56:27.055Z,88.81
2022-12-04T11:58:53.814Z,88.58
2022-12-04T12:01:23.402Z,88.78
2022-12-04T12:04:08.095Z,88.74
2022-12-04T12:06:39.676Z,88.47
2022-12-04T12:09:25.200Z,88.92
2022-12-04T12:12:16.825Z,89.13
2022-12-04T12:15:08.404Z,88.81
2022-12-04T12:18:08.773Z,88.69
2022-12-04T12:20:54.014Z,89.27
2022-12-04T12:23:32.876Z,88.68
2022-12-04T12:26:13.599Z,88.64
2022-12-04T12:28:58.550Z,88.65
2022-12-04T12:31:34.124Z,88.92
2022-12-04T12:34:05.682Z,88.69
2022-12-04T12:36:42.815Z,88.44
2022-12-04T12:39:16.575Z,88.61
2022-12-04T12:41:48.101Z,88.59
2022-12-04T12:44:21.726Z,89.42
2022-12-04T12:46:53.626Z,90.09
2022-12-04T12:49:23.339Z,89.71
2022-12-04T12:52:13.042Z,90.07
2022-12-04T12:54:39.730Z,90.13
2022-12-04T12:57:17.632Z,89.43
2022-12-04T12:59:48.709Z,89.69
2022-12-04T13:02:28.383Z,89.67
2022-12-04T13:04:58.188Z,89.64
2022-12-04T13:07:36.853Z,90.48
2022-12-04T13:10:12.388Z,89.99
2022-12-04T13:12:49.225Z,90.04
2022-12-04T13:15:17.924Z,90.41
2022-12-04T13:17:45.479Z,89.67
2022-12-04T13:20:18.948Z,89.67
2022-12-04T13:23:02.480Z,90.01
2022-12-04T13:25:31.342Z,90.39
2022-12-04T13:28:14.288Z,89.93
2022-12-04T13:30:59.821Z,90.10
2022-12-04T13:33:38.310Z,90.06
2022-12-04T13:36:23.035Z,90.38
2022-12-04T13:39:14.455Z,90.17
2022-12-04T13:41:41.132Z,90.01
2022-12-04T13:44:20.362Z,90.88
2022-12-04T13:46:56.628Z,90.07
2022-12-04T13:49:27.414Z,90.92
2022-12-04T13:51:55.626Z,90.80
2022-12-04T13:54:26.959Z,90.89
2022-12-04T13:56:56.910Z,90.74
2022-12-04T13:59:23.532Z,90.83
2022-12-04T14:01:52.367Z,91.21
2022-12-04T14:04:27.392Z,90.88
2022-12-04T14:06:56.135Z,90.46
2022-12-04T14:09:29.705Z,90.39
2022-12-04T14:12:01.731Z,91.05
2022-12-04T14:14:38.793Z,90.61
2022-12-04T14:17:05.690Z,90.73
2022-12-04T14:19:41.182Z,90.84
2022-12-04T14:22:25.501Z,90.77
2022-12-04T14:24:52.532Z,90.30
2022-12-04T14:27:42.731Z,91.11
2022-12-04T14:30:39.121Z,90.92
2022-12-04T14:33:08.335Z,90.69
2022-12-04T14:35:43.436Z,91.53
2022-12-04T14:38:16.943Z,91.02
2022-12-04T14:40:52.088Z,91.75
2022-12-04T14:43:21.327Z,91.29
2022-12-04T14:45:58.517Z,91.60
2022-12-04T14:48:42.242Z,92.19
2022-12-04T14:51:47.169Z,92.35
2022-12-04T14:54:29.053Z,92.19
2022-12-04T14:57:14.361Z,92.63
2022-12-04T14:59:47.625Z,92.19
2022-12-04T15:02:18.720Z,94.05
2022-12-04T15:04:47.192Z,92.26
2022-12-04T15:07:20.971Z,92.41
2022-12-04T15:10:20.802Z,92.62
2022-12-04T15:12:50.921Z,92.98
2022-12-04T15:15:27.033Z,92.66
2022-12-04T15:18:01.743Z,92.46
2022-12-04T15:20:50.159Z,93.02
2022-12-04T15:23:17.589Z,92.55
2022-12-04T15:25:47.179Z,92.94
2022-12-04T15:28:21.322Z,93.58
2022-12-04T15:30:49.017Z,92.88
2022-12-04T15:33:21.481Z,93.07
2022-12-04T15:36:02.034Z,92.97
2022-12-04T15:38:29.030Z,92.93
2022-12-04T15:40:58.056Z,93.34
2022-12-04T15:43:40.909Z,94.09
2022-12-04T15:46:15.257Z,94.43
2022-12-04T15:48:47.562Z,93.36
2022-12-04T15:51:16.133Z,93.46
2022-12-04T15:53:45.951Z,93.13
2022-12-04T15:56:20.802Z,93.48
2022-12-04T15:58:57.175Z,93.62
2022-12-04T16:01:24.009Z,93.37
2022-12-04T16:03:57.094Z,93.97
2022-12-04T16:06:32.376Z,93.56
2022-12-04T16:09:00.162Z,93.42
2022-12-04T16:11:34.704Z,93.62
2022-12-04T16:14:13.459Z,93.77
2022-12-04T16:16:43.637Z,93.65
2022-12-04T16:19:28.772Z,94.64
2022-12-04T16:21:55.589Z,94.55
2022-12-04T16:24:22.806Z,94.33
2022-12-04T16:26:54.798Z,94.48
2022-12-04T16:29:22.536Z,94.62
2022-12-04T16:31:49.698Z,94.22
2022-12-04T16:34:16.734Z,94.59
2022-12-04T16:36:43.781Z,94.71
2022-12-04T16:39:10.730Z,94.39
2022-12-04T16:41:37.648Z,94.65
2022-12-04T16:44:12.342Z,93.95
2022-12-04T16:46:39.182Z,94.64
2022-12-04T16:49:07.597Z,93.91
2022-12-04T16:55:33.472Z,94.24
2022-12-04T17:01:48.625Z,93.82
2022-12-04T17:04:16.861Z,92.98
2022-12-04T17:06:43.795Z,93.16
2022-12-04T17:09:10.660Z,93.05
2022-12-04T17:11:37.648Z,93.28
2022-12-04T17:14:07.227Z,93.03
2022-12-04T17:16:35.773Z,93.05
2022-12-04T17:19:03.293Z,93.14
2022-12-04T17:21:30.206Z,92.39
2022-12-04T17:23:56.952Z,93.06
2022-12-04T17:26:24.007Z,92.75
2022-12-04T17:28:50.763Z,92.84
2022-12-04T17:31:22.941Z,92.84
2022-12-04T17:33:50.315Z,92.97
2022-12-04T17:36:22.175Z,92.76
2022-12-04T17:38:53.532Z,92.85
2022-12-04T17:41:20.422Z,92.26
2022-12-04T17:43:47.664Z,92.84
2022-12-04T17:46:17.462Z,92.90
2022-12-04T17:48:44.349Z,92.39
2022-12-04T17:51:22.194Z,92.53
2022-12-04T17:53:49.356Z,92.88
2022-12-04T17:56:18.428Z,92.43
2022-12-04T17:58:46.086Z,92.23
2022-12-04T18:01:24.627Z,92.39
2022-12-04T18:03:57.080Z,92.03
2022-12-04T18:06:25.945Z,91.89
2022-12-04T18:08:53.395Z,92.34
2022-12-04T18:11:21.461Z,91.94
2022-12-04T18:13:49.459Z,92.08
2022-12-04T18:16:16.550Z,92.58
2022-12-04T18:18:46.603Z,92.43
2022-12-04T18:21:14.426Z,92.40
2022-12-04T18:23:47.261Z,92.53
2022-12-04T18:26:17.642Z,92.55
2022-12-04T18:28:45.208Z,92.62
2022-12-04T18:31:12.598Z,92.21
2022-12-04T18:33:40.741Z,92.45
2022-12-04T18:36:09.456Z,92.00
2022-12-04T18:38:36.188Z,92.08
2022-12-04T18:41:07.804Z,91.94
2022-12-04T18:43:39.619Z,91.88
2022-12-04T18:46:09.043Z,91.72
2022-12-04T18:48:36.840Z,91.80
2022-12-04T18:51:26.846Z,91.88
2022-12-04T18:53:56.272Z,92.17
2022-12-04T18:56:22.982Z,92.02
2022-12-04T18:58:49.837Z,91.94
2022-12-04T19:01:18.869Z,91.88
2022-12-04T19:03:46.937Z,91.85
2022-12-04T19:06:13.979Z,91.81
2022-12-04T19:08:43.257Z,91.86
2022-12-04T19:11:15.710Z,91.71
2022-12-04T19:13:42.571Z,91.67
2022-12-04T19:16:13.399Z,91.85
2022-12-04T19:18:41.436Z,91.66
2022-12-04T19:21:09.041Z,91.95
2022-12-04T19:23:35.862Z,91.84
2022-12-04T19:26:03.297Z,91.73
2022-12-04T19:28:30.428Z,92.48
2022-12-04T19:30:57.504Z,92.56
2022-12-04T19:33:25.092Z,92.65
2022-12-04T19:35:58.824Z,92.39
2022-12-04T19:38:25.741Z,92.81
2022-12-04T19:41:06.451Z,92.44
2022-12-04T19:43:33.380Z,92.71
2022-12-04T19:46:00.229Z,92.93
2022-12-04T19:48:27.101Z,93.02
2022-12-04T19:50:53.963Z,92.97
2022-12-04T19:53:20.825Z,92.80
2022-12-04T19:55:47.524Z,93.10
2022-12-04T19:58:14.318Z,93.14
2022-12-04T20:00:41.439Z,92.97
2022-12-04T20:03:08.179Z,93.04
2022-12-04T20:05:37.931Z,93.51
2022-12-04T20:10:33.007Z,93.73
2022-12-04T20:12:59.807Z,93.95
2022-12-04T20:15:26.625Z,93.88
2022-12-04T20:17:53.599Z,94.10
2022-12-04T20:20:20.473Z,94.06
2022-12-04T20:22:47.635Z,94.53
2022-12-04T20:25:14.502Z,94.30
2022-12-04T20:27:41.336Z,94.34
2022-12-04T20:30:08.705Z,94.11
2022-12-04T20:32:35.497Z,94.33
2022-12-04T20:35:02.234Z,94.71
2022-12-04T20:37:29.800Z,94.62
2022-12-04T20:39:56.896Z,94.80
2022-12-04T20:42:27.410Z,95.02
2022-12-04T20:44:57.059Z,96.51
2022-12-04T20:47:25.095Z,95.32
2022-12-04T20:49:52.096Z,95.20
2022-12-04T20:52:18.926Z,95.51
2022-12-04T20:54:45.905Z,95.91
2022-12-04T20:57:12.652Z,95.36
2022-12-04T20:59:39.477Z,95.48
2022-12-04T21:02:06.324Z,95.45
2022-12-04T21:04:37.805Z,95.73
2022-12-04T21:07:04.520Z,95.65
2022-12-04T21:09:31.388Z,95.77
2022-12-04T21:11:58.162Z,95.77
2022-12-04T21:14:46.519Z,95.72
2022-12-04T21:17:18.774Z,96.08
2022-12-04T21:19:46.752Z,96.78
2022-12-04T21:22:13.503Z,96.92
2022-12-04T21:24:42.107Z,96.34
2022-12-04T21:27:11.572Z,96.42
2022-12-04T21:29:40.076Z,96.60
2022-12-04T21:32:08.101Z,96.57
2022-12-04T21:34:34.922Z,96.80
2022-12-04T21:37:01.636Z,97.32
2022-12-04T21:39:28.359Z,97.08
2022-12-04T21:42:13.844Z,97.24
2022-12-04T21:44:40.696Z,97.07
2022-12-04T21:47:07.387Z,97.18
2022-12-04T21:49:34.093Z,97.28
2022-12-04T21:52:01.031Z,97.05
2022-12-04T21:54:28.015Z,97.06
2022-12-04T21:56:54.741Z,97.08
2022-12-04T21:59:21.482Z,97.00
2022-12-04T22:01:48.287Z,97.04
2022-12-04T22:04:15.440Z,97.09
2022-12-04T22:06:42.245Z,97.08
2022-12-04T22:09:10.907Z,96.91
2022-12-04T22:11:38.716Z,97.07
2022-12-04T22:14:05.448Z,97.13
2022-12-04T22:16:34.699Z,97.19
2022-12-04T22:19:04.358Z,97.10
2022-12-04T22:21:31.341Z,97.60
2022-12-04T22:23:59.549Z,97.46
2022-12-04T22:26:28.352Z,97.39
2022-12-04T22:28:55.656Z,98.19
2022-12-04T22:31:24.405Z,97.67
2022-12-04T22:33:53.230Z,97.42
2022-12-04T22:36:24.215Z,97.72
2022-12-04T22:39:09.708Z,97.34
2022-12-04T22:41:36.989Z,98.17
2022-12-04T22:44:04.203Z,97.52
2022-12-04T22:46:31.129Z,97.40
2022-12-04T22:48:58.702Z,97.92
2022-12-04T22:51:25.435Z,97.85
2022-12-04T22:53:54.200Z,97.67
2022-12-04T22:56:23.677Z,98.19
2022-12-04T22:58:50.841Z,97.78
2022-12-04T23:01:21.496Z,97.54
2022-12-04T23:03:48.616Z,97.66
2022-12-04T23:06:16.580Z,97.66
2022-12-04T23:08:43.762Z,97.56
2022-12-04T23:11:13.583Z,97.32
2022-12-04T23:13:40.701Z,97.34
2022-12-04T23:16:09.758Z,97.46
2022-12-04T23:18:37.324Z,97.46
2022-12-04T23:21:09.407Z,97.48
2022-12-04T23:23:37.452Z,97.38
2022-12-04T23:26:05.975Z,97.35
2022-12-04T23:28:32.705Z,97.36
2022-12-04T23:30:59.636Z,97.45
2022-12-04T23:33:26.607Z,97.06
2022-12-04T23:35:54.675Z,97.21
2022-12-04T23:38:22.870Z,97.38
2022-12-04T23:40:49.803Z,97.15
2022-12-04T23:43:17.156Z,97.02
2022-12-04T23:45:44.422Z,97.18
2022-12-04T23:48:11.236Z,97.47
2022-12-04T23:50:37.954Z,97.26
2022-12-04T23:53:04.616Z,97.72
2022-12-04T23:55:34.488Z,97.18
2022-12-04T23:58:02.111Z,96.90
